createdAt,value
2017-02-10T00:00:07.993Z,0
2017-02-10T00:01:16.980Z,0
2017-02-10T00:02:25.963Z,0
2017-02-10T00:03:34.938Z,0
2017-02-10T00:04:43.919Z,0
2017-02-10T00:05:52.884Z,0
2017-02-10T00:07:01.991Z,0
2017-02-10T00:08:10.962Z,0
2017-02-10T00:09:19.938Z,0
2017-02-10T00:10:28.918Z,0
2017-02-10T00:11:37.896Z,0
2017-02-10T00:12:47.124Z,0
2017-02-10T00:13:56.098Z,0
2017-02-10T00:15:05.067Z,0
2017-02-10T00:16:14.034Z,0
2017-02-10T00:17:23.021Z,0
2017-02-10T00:18:32.003Z,0
2017-02-10T00:19:40.976Z,0
2017-02-10T00:20:49.944Z,0
2017-02-10T00:21:58.925Z,0
2017-02-10T00:23:07.890Z,0
2017-02-10T00:24:16.874Z,0
2017-02-10T00:25:25.855Z,0
2017-02-10T00:26:34.831Z,0
2017-02-10T00:27:43.803Z,0
2017-02-10T00:28:53.207Z,0
2017-02-10T00:30:02.173Z,0
2017-02-10T00:31:11.154Z,0
2017-02-10T00:32:20.127Z,0
2017-02-10T00:33:29.102Z,0
2017-02-10T00:34:38.074Z,0
2017-02-10T00:35:47.052Z,0
2017-02-10T00:36:56.024Z,0
2017-02-10T00:38:05.006Z,0
2017-02-10T00:39:13.987Z,0
2017-02-10T00:40:22.951Z,0
2017-02-10T00:41:31.934Z,0
2017-02-10T00:42:41.325Z,0
2017-02-10T00:43:50.339Z,0
2017-02-10T00:44:59.319Z,0
2017-02-10T00:46:08.297Z,0
2017-02-10T00:47:17.272Z,0
2017-02-10T00:48:26.244Z,0
2017-02-10T00:49:35.225Z,0
2017-02-10T00:50:44.204Z,0
2017-02-10T00:51:53.180Z,0
2017-02-10T00:53:02.164Z,0
2017-02-10T00:54:11.550Z,0
2017-02-10T00:55:20.509Z,0
2017-02-10T00:56:29.507Z,0
2017-02-10T00:57:38.502Z,0
2017-02-10T00:58:47.889Z,0
2017-02-10T00:59:56.871Z,0
2017-02-10T01:01:05.842Z,0
2017-02-10T01:02:14.820Z,0
2017-02-10T01:03:23.796Z,0
2017-02-10T01:04:32.777Z,0
2017-02-10T01:05:42.160Z,0
2017-02-10T01:06:51.139Z,0
2017-02-10T01:08:00.109Z,0
2017-02-10T01:09:09.492Z,0
2017-02-10T01:10:18.478Z,0
2017-02-10T01:11:27.448Z,0
2017-02-10T01:12:36.428Z,0
2017-02-10T01:13:45.407Z,0
2017-02-10T01:14:54.375Z,0
2017-02-10T01:16:03.404Z,0
2017-02-10T01:17:12.378Z,0
2017-02-10T01:18:21.355Z,0
2017-02-10T01:19:30.330Z,0
2017-02-10T01:20:39.306Z,0
2017-02-10T01:21:48.290Z,0
2017-02-10T01:22:57.256Z,0
2017-02-10T01:24:06.648Z,0
2017-02-10T01:25:15.632Z,0
2017-02-10T01:26:24.608Z,0
2017-02-10T01:27:33.585Z,0
2017-02-10T01:28:42.978Z,0
2017-02-10T01:29:51.950Z,0
2017-02-10T01:31:00.927Z,0
2017-02-10T01:32:09.901Z,0
2017-02-10T01:33:18.872Z,0
2017-02-10T01:34:27.848Z,0
2017-02-10T01:35:36.824Z,0
2017-02-10T01:36:45.802Z,0
2017-02-10T01:37:54.777Z,0
2017-02-10T01:39:04.170Z,0
2017-02-10T01:40:13.135Z,0
2017-02-10T01:41:22.602Z,0
2017-02-10T01:42:31.571Z,0
2017-02-10T01:43:40.550Z,0
2017-02-10T01:44:49.522Z,0
2017-02-10T01:45:58.492Z,0
2017-02-10T01:47:07.948Z,0
2017-02-10T01:48:16.917Z,0
2017-02-10T01:49:25.889Z,0
2017-02-10T01:50:34.861Z,0
2017-02-10T01:51:43.844Z,0
2017-02-10T01:52:52.812Z,0
2017-02-10T01:54:01.791Z,0
2017-02-10T01:55:10.763Z,0
2017-02-10T01:56:19.733Z,0
2017-02-10T01:57:28.712Z,0
2017-02-10T01:58:37.681Z,0
2017-02-10T01:59:46.667Z,0
2017-02-10T02:00:55.650Z,0
2017-02-10T02:02:04.644Z,0
2017-02-10T02:03:14.101Z,0
2017-02-10T02:04:23.502Z,0
2017-02-10T02:05:32.486Z,0
2017-02-10T02:06:41.873Z,0
2017-02-10T02:07:50.844Z,0
2017-02-10T02:08:59.827Z,0
2017-02-10T02:10:08.798Z,0
2017-02-10T02:11:17.769Z,0
2017-02-10T02:12:26.739Z,0
2017-02-10T02:13:35.706Z,0
2017-02-10T02:14:44.673Z,0
2017-02-10T02:15:53.651Z,0
2017-02-10T02:17:02.620Z,0
2017-02-10T02:18:12.006Z,0
2017-02-10T02:19:21.029Z,0
2017-02-10T02:20:30.005Z,0
2017-02-10T02:21:38.974Z,0
2017-02-10T02:22:47.950Z,0
2017-02-10T02:23:56.914Z,0
2017-02-10T02:25:05.888Z,0
2017-02-10T02:26:14.872Z,0
2017-02-10T02:27:23.851Z,0
2017-02-10T02:28:32.829Z,0
2017-02-10T02:29:41.800Z,0
2017-02-10T02:30:50.776Z,0
2017-02-10T02:31:59.737Z,0
2017-02-10T02:33:08.718Z,0
2017-02-10T02:34:17.688Z,0
2017-02-10T02:35:26.672Z,0
2017-02-10T02:36:35.654Z,0
2017-02-10T02:37:44.624Z,0
2017-02-10T02:38:53.593Z,0
2017-02-10T02:40:02.570Z,0
2017-02-10T02:41:11.553Z,0
2017-02-10T02:42:20.539Z,0
2017-02-10T02:43:29.516Z,0
2017-02-10T02:44:38.483Z,0
2017-02-10T02:45:47.868Z,0
2017-02-10T02:46:56.849Z,0
2017-02-10T02:48:05.832Z,0
2017-02-10T02:49:14.807Z,0
2017-02-10T02:50:23.775Z,0
2017-02-10T02:51:32.743Z,0
2017-02-10T02:52:41.723Z,0
2017-02-10T02:53:50.755Z,0
2017-02-10T02:54:59.728Z,0
2017-02-10T02:56:08.703Z,0
2017-02-10T02:57:17.676Z,0
2017-02-10T02:58:26.649Z,0
2017-02-10T02:59:35.651Z,0
2017-02-10T03:00:44.632Z,0
2017-02-10T03:01:53.619Z,0
2017-02-10T03:03:02.625Z,0
2017-02-10T03:04:11.613Z,0
2017-02-10T03:05:20.575Z,0
2017-02-10T03:06:30.041Z,0
2017-02-10T03:07:39.016Z,0
2017-02-10T03:08:48.026Z,0
2017-02-10T03:09:57.007Z,0
2017-02-10T03:11:05.986Z,0
2017-02-10T03:12:14.949Z,0
2017-02-10T03:13:23.922Z,0
2017-02-10T03:14:33.308Z,0
2017-02-10T03:15:42.287Z,0
2017-02-10T03:16:51.254Z,0
2017-02-10T03:18:00.227Z,0
2017-02-10T03:19:09.615Z,0
2017-02-10T03:20:18.627Z,0
2017-02-10T03:21:27.608Z,0
2017-02-10T03:22:36.636Z,0
2017-02-10T03:23:45.610Z,0
2017-02-10T03:24:54.577Z,0
2017-02-10T03:26:03.554Z,0
2017-02-10T03:27:12.522Z,0
2017-02-10T03:28:21.554Z,0
2017-02-10T03:29:30.528Z,0
2017-02-10T03:30:39.498Z,0
2017-02-10T03:31:48.464Z,0
2017-02-10T03:32:57.444Z,0
2017-02-10T03:34:06.421Z,0
2017-02-10T03:35:15.391Z,0
2017-02-10T03:36:24.373Z,0
2017-02-10T03:37:33.345Z,0
2017-02-10T03:38:42.314Z,0
2017-02-10T03:39:51.285Z,0
2017-02-10T03:41:00.259Z,0
2017-02-10T03:42:09.649Z,0
2017-02-10T03:43:18.630Z,0
2017-02-10T03:44:27.594Z,0
2017-02-10T03:45:36.558Z,0
2017-02-10T03:46:45.529Z,0
2017-02-10T03:47:54.507Z,0
2017-02-10T03:49:03.886Z,0
2017-02-10T03:50:12.868Z,0
2017-02-10T03:51:21.830Z,0
2017-02-10T03:52:30.804Z,0
2017-02-10T03:53:39.766Z,0
2017-02-10T03:54:48.748Z,0
2017-02-10T03:55:57.716Z,0
2017-02-10T03:57:06.691Z,0
2017-02-10T03:58:15.658Z,0
2017-02-10T03:59:24.632Z,0
2017-02-10T04:00:33.602Z,0
2017-02-10T04:01:43.404Z,0
2017-02-10T04:02:52.379Z,0
2017-02-10T04:04:01.356Z,0
2017-02-10T04:05:10.330Z,0
2017-02-10T04:06:19.309Z,0
2017-02-10T04:07:28.283Z,0
2017-02-10T04:08:37.262Z,0
2017-02-10T04:09:46.233Z,0
2017-02-10T04:10:55.201Z,0
2017-02-10T04:12:04.668Z,0
2017-02-10T04:13:13.654Z,0
2017-02-10T04:14:22.622Z,0
2017-02-10T04:15:32.008Z,0
2017-02-10T04:16:40.987Z,0
2017-02-10T04:17:50.772Z,0
2017-02-10T04:18:59.947Z,0
2017-02-10T04:20:08.923Z,0
2017-02-10T04:21:17.898Z,0
2017-02-10T04:22:26.858Z,0
2017-02-10T04:23:35.835Z,0
2017-02-10T04:24:44.807Z,0
2017-02-10T04:25:53.790Z,0
2017-02-10T04:27:02.775Z,0
2017-02-10T04:28:11.745Z,0
2017-02-10T04:29:20.709Z,0
2017-02-10T04:30:29.683Z,0
2017-02-10T04:31:38.650Z,0
2017-02-10T04:32:48.042Z,0
2017-02-10T04:33:57.017Z,0
2017-02-10T04:35:05.983Z,0
2017-02-10T04:36:14.953Z,0
2017-02-10T04:37:23.928Z,0
2017-02-10T04:38:32.914Z,0
2017-02-10T04:39:42.295Z,0
2017-02-10T04:40:51.276Z,0
2017-02-10T04:42:00.238Z,0
2017-02-10T04:43:10.118Z,0
2017-02-10T04:44:19.087Z,0
2017-02-10T04:45:28.069Z,0
2017-02-10T04:46:37.444Z,0
2017-02-10T04:47:46.913Z,0
2017-02-10T04:48:56.411Z,0
2017-02-10T04:50:05.868Z,0
2017-02-10T04:51:15.259Z,0
2017-02-10T04:52:24.244Z,0
2017-02-10T04:53:33.206Z,0
2017-02-10T04:54:42.189Z,0
2017-02-10T04:55:51.172Z,0
2017-02-10T04:57:00.154Z,0
2017-02-10T04:58:09.123Z,0
2017-02-10T04:59:18.106Z,0
2017-02-10T05:00:27.077Z,0
2017-02-10T05:01:36.466Z,0
2017-02-10T05:02:45.433Z,0
2017-02-10T05:03:54.404Z,0
2017-02-10T05:05:03.815Z,0
2017-02-10T05:06:12.792Z,0
2017-02-10T05:07:21.773Z,0
2017-02-10T05:08:30.751Z,0
2017-02-10T05:09:39.713Z,0
2017-02-10T05:10:48.682Z,0
2017-02-10T05:11:57.908Z,0
2017-02-10T05:13:06.883Z,0
2017-02-10T05:14:16.268Z,0
2017-02-10T05:15:25.233Z,0
2017-02-10T05:16:34.208Z,0
2017-02-10T05:17:43.175Z,0
2017-02-10T05:18:52.153Z,0
2017-02-10T05:20:01.548Z,0
2017-02-10T05:21:10.522Z,0
2017-02-10T05:22:19.492Z,0
2017-02-10T05:23:28.468Z,0
2017-02-10T05:24:37.439Z,0
2017-02-10T05:25:46.414Z,0
2017-02-10T05:26:55.384Z,0
2017-02-10T05:28:04.350Z,0
2017-02-10T05:29:13.320Z,0
2017-02-10T05:30:22.297Z,0
2017-02-10T05:31:31.271Z,0
2017-02-10T05:32:40.656Z,0
2017-02-10T05:33:49.824Z,0
2017-02-10T05:34:58.814Z,0
2017-02-10T05:36:07.847Z,0
2017-02-10T05:37:16.823Z,0
2017-02-10T05:38:25.797Z,0
2017-02-10T05:39:34.777Z,0
2017-02-10T05:40:43.757Z,0
2017-02-10T05:41:52.720Z,0
2017-02-10T05:43:01.695Z,0
2017-02-10T05:44:10.674Z,0
2017-02-10T05:45:19.644Z,0
2017-02-10T05:46:28.618Z,0
2017-02-10T05:47:37.593Z,0
2017-02-10T05:48:46.568Z,0
2017-02-10T05:49:55.537Z,0
2017-02-10T05:51:04.511Z,0
2017-02-10T05:52:13.484Z,0
2017-02-10T05:53:22.458Z,0
2017-02-10T05:54:31.430Z,0
2017-02-10T05:55:40.401Z,0
2017-02-10T05:56:49.793Z,0
2017-02-10T05:57:58.808Z,0
2017-02-10T05:59:07.789Z,0
2017-02-10T06:00:17.177Z,0
2017-02-10T06:01:26.142Z,0
2017-02-10T06:02:35.110Z,0
2017-02-10T06:03:44.134Z,0
2017-02-10T06:04:53.104Z,0
2017-02-10T06:06:02.070Z,0
2017-02-10T06:07:11.056Z,0
2017-02-10T06:08:20.026Z,0
2017-02-10T06:09:29.017Z,0
2017-02-10T06:10:37.987Z,4
2017-02-10T06:11:46.972Z,0
2017-02-10T06:12:55.936Z,0
2017-02-10T06:14:04.918Z,0
2017-02-10T06:15:13.880Z,4
2017-02-10T06:16:22.857Z,4
2017-02-10T06:17:31.837Z,4
2017-02-10T06:18:40.807Z,0
2017-02-10T06:19:49.767Z,0
2017-02-10T06:20:58.746Z,4
2017-02-10T06:22:07.715Z,0
2017-02-10T06:23:16.693Z,0
2017-02-10T06:24:26.084Z,0
2017-02-10T06:25:35.051Z,4
2017-02-10T06:26:44.076Z,4
2017-02-10T06:27:53.055Z,4
2017-02-10T06:29:02.034Z,4
2017-02-10T06:30:11.004Z,4
2017-02-10T06:31:20.014Z,4
2017-02-10T06:32:28.982Z,8
2017-02-10T06:33:37.956Z,8
2017-02-10T06:34:46.931Z,4
2017-02-10T06:35:55.910Z,4
2017-02-10T06:37:04.878Z,8
2017-02-10T06:38:14.274Z,8
2017-02-10T06:39:23.243Z,12
2017-02-10T06:40:32.217Z,8
2017-02-10T06:41:41.601Z,12
2017-02-10T06:42:50.573Z,12
2017-02-10T06:43:59.562Z,12
2017-02-10T06:45:08.535Z,16
2017-02-10T06:46:17.512Z,16
2017-02-10T06:47:26.481Z,16
2017-02-10T06:48:35.451Z,16
2017-02-10T06:49:44.433Z,16
2017-02-10T06:50:53.402Z,20
2017-02-10T06:52:02.383Z,20
2017-02-10T06:53:11.350Z,16
2017-02-10T06:54:20.318Z,20
2017-02-10T06:55:29.292Z,20
2017-02-10T06:56:38.267Z,20
2017-02-10T06:57:47.239Z,20
2017-02-10T06:58:56.224Z,24
2017-02-10T07:00:05.192Z,24
2017-02-10T07:01:14.161Z,24
2017-02-10T07:02:23.137Z,24
2017-02-10T07:03:32.115Z,24
2017-02-10T07:04:41.089Z,28
2017-02-10T07:05:50.060Z,24
2017-02-10T07:06:59.043Z,28
2017-02-10T07:08:08.007Z,32
2017-02-10T07:09:16.993Z,32
2017-02-10T07:10:25.958Z,36
2017-02-10T07:11:34.929Z,40
2017-02-10T07:12:44.153Z,40
2017-02-10T07:13:53.131Z,40
2017-02-10T07:15:02.105Z,44
2017-02-10T07:16:11.491Z,48
2017-02-10T07:17:20.468Z,52
2017-02-10T07:18:29.441Z,52
2017-02-10T07:19:38.415Z,52
2017-02-10T07:20:47.388Z,56
2017-02-10T07:21:56.362Z,56
2017-02-10T07:23:05.336Z,60
2017-02-10T07:24:14.316Z,64
2017-02-10T07:25:23.281Z,60
2017-02-10T07:26:32.662Z,64
2017-02-10T07:27:42.049Z,60
2017-02-10T07:28:51.027Z,64
2017-02-10T07:30:00.017Z,68
2017-02-10T07:31:09.485Z,72
2017-02-10T07:32:18.449Z,76
2017-02-10T07:33:27.834Z,72
2017-02-10T07:34:36.814Z,72
2017-02-10T07:35:45.787Z,76
2017-02-10T07:36:54.765Z,76
2017-02-10T07:38:03.744Z,80
2017-02-10T07:39:12.718Z,80
2017-02-10T07:40:21.680Z,80
2017-02-10T07:41:30.672Z,80
2017-02-10T07:42:39.655Z,84
2017-02-10T07:43:48.627Z,84
2017-02-10T07:44:57.602Z,88
2017-02-10T07:46:06.569Z,96
2017-02-10T07:47:15.553Z,96
2017-02-10T07:48:24.520Z,100
2017-02-10T07:49:33.499Z,108
2017-02-10T07:50:42.479Z,112
2017-02-10T07:51:51.446Z,120
2017-02-10T07:53:00.835Z,124
2017-02-10T07:54:09.823Z,124
2017-02-10T07:55:18.796Z,124
2017-02-10T07:56:27.768Z,132
2017-02-10T07:57:36.747Z,148
2017-02-10T07:58:45.771Z,164
2017-02-10T07:59:54.751Z,160
2017-02-10T08:01:03.722Z,148
2017-02-10T08:02:12.707Z,140
2017-02-10T08:03:21.678Z,136
2017-02-10T08:04:30.665Z,132
2017-02-10T08:05:39.667Z,128
2017-02-10T08:06:48.648Z,140
2017-02-10T08:07:57.621Z,156
2017-02-10T08:09:06.602Z,156
2017-02-10T08:10:15.979Z,156
2017-02-10T08:11:24.960Z,148
2017-02-10T08:12:34.381Z,140
2017-02-10T08:13:43.362Z,148
2017-02-10T08:14:52.341Z,152
2017-02-10T08:16:01.310Z,152
2017-02-10T08:17:10.278Z,144
2017-02-10T08:18:19.254Z,148
2017-02-10T08:19:28.235Z,148
2017-02-10T08:20:37.619Z,148
2017-02-10T08:21:46.600Z,144
2017-02-10T08:22:55.568Z,156
2017-02-10T08:24:04.551Z,168
2017-02-10T08:25:13.528Z,172
2017-02-10T08:26:22.510Z,172
2017-02-10T08:27:31.500Z,180
2017-02-10T08:28:40.480Z,204
2017-02-10T08:29:49.457Z,200
2017-02-10T08:30:58.435Z,172
2017-02-10T08:32:07.412Z,192
2017-02-10T08:33:16.392Z,204
2017-02-10T08:34:25.369Z,212
2017-02-10T08:35:34.347Z,220
2017-02-10T08:36:43.325Z,220
2017-02-10T08:37:52.295Z,220
2017-02-10T08:39:01.271Z,220
2017-02-10T08:40:10.253Z,216
2017-02-10T08:41:19.638Z,212
2017-02-10T08:42:28.618Z,208
2017-02-10T08:43:38.079Z,220
2017-02-10T08:44:47.050Z,220
2017-02-10T08:45:56.033Z,220
2017-02-10T08:47:05.021Z,220
2017-02-10T08:48:13.993Z,224
2017-02-10T08:49:22.973Z,232
2017-02-10T08:50:31.943Z,232
2017-02-10T08:51:40.924Z,232
2017-02-10T08:52:49.900Z,228
2017-02-10T08:53:58.883Z,232
2017-02-10T08:55:07.854Z,236
2017-02-10T08:56:16.825Z,244
2017-02-10T08:57:25.810Z,244
2017-02-10T08:58:34.791Z,260
2017-02-10T08:59:43.774Z,260
2017-02-10T09:00:52.747Z,264
2017-02-10T09:02:01.727Z,260
2017-02-10T09:03:10.702Z,260
2017-02-10T09:04:19.683Z,264
2017-02-10T09:05:28.656Z,264
2017-02-10T09:06:37.629Z,260
2017-02-10T09:07:46.614Z,256
2017-02-10T09:08:55.592Z,256
2017-02-10T09:10:04.564Z,260
2017-02-10T09:11:13.561Z,256
2017-02-10T09:12:22.534Z,268
2017-02-10T09:13:31.760Z,268
2017-02-10T09:14:40.740Z,268
2017-02-10T09:15:49.712Z,272
2017-02-10T09:16:58.687Z,272
2017-02-10T09:18:07.661Z,280
2017-02-10T09:19:16.632Z,280
2017-02-10T09:20:25.605Z,276
2017-02-10T09:21:34.587Z,276
2017-02-10T09:22:44.038Z,280
2017-02-10T09:23:53.013Z,280
2017-02-10T09:25:01.997Z,288
2017-02-10T09:26:11.381Z,296
2017-02-10T09:27:20.356Z,300
2017-02-10T09:28:29.339Z,296
2017-02-10T09:29:38.321Z,304
2017-02-10T09:30:47.294Z,304
2017-02-10T09:31:56.274Z,300
2017-02-10T09:33:05.256Z,308
2017-02-10T09:34:14.228Z,312
2017-02-10T09:35:23.205Z,300
2017-02-10T09:36:32.179Z,300
2017-02-10T09:37:41.159Z,292
2017-02-10T09:38:50.141Z,288
2017-02-10T09:39:59.119Z,300
2017-02-10T09:41:08.508Z,296
2017-02-10T09:42:17.488Z,296
2017-02-10T09:43:26.460Z,296
2017-02-10T09:44:35.433Z,292
2017-02-10T09:45:44.419Z,296
2017-02-10T09:46:53.396Z,316
2017-02-10T09:48:02.364Z,312
2017-02-10T09:49:11.347Z,316
2017-02-10T09:50:20.320Z,316
2017-02-10T09:51:29.708Z,312
2017-02-10T09:52:38.683Z,316
2017-02-10T09:53:47.678Z,336
2017-02-10T09:54:56.668Z,328
2017-02-10T09:56:05.653Z,340
2017-02-10T09:57:14.615Z,360
2017-02-10T09:58:23.589Z,368
2017-02-10T09:59:32.614Z,364
2017-02-10T10:00:41.593Z,408
2017-02-10T10:01:50.567Z,412
2017-02-10T10:02:59.550Z,424
2017-02-10T10:04:08.523Z,416
2017-02-10T10:05:17.499Z,400
2017-02-10T10:06:26.488Z,364
2017-02-10T10:07:35.464Z,328
2017-02-10T10:08:44.443Z,304
2017-02-10T10:09:53.823Z,268
2017-02-10T10:11:03.213Z,248
2017-02-10T10:12:12.185Z,232
2017-02-10T10:13:21.166Z,236
2017-02-10T10:14:30.144Z,228
2017-02-10T10:15:39.124Z,220
2017-02-10T10:16:48.091Z,196
2017-02-10T10:17:57.081Z,188
2017-02-10T10:19:06.052Z,168
2017-02-10T10:20:15.031Z,172
2017-02-10T10:21:24.009Z,172
2017-02-10T10:22:32.988Z,216
2017-02-10T10:23:42.380Z,252
2017-02-10T10:24:51.360Z,228
2017-02-10T10:26:00.329Z,228
2017-02-10T10:27:09.313Z,260
2017-02-10T10:28:18.296Z,276
2017-02-10T10:29:27.273Z,300
2017-02-10T10:30:36.252Z,296
2017-02-10T10:31:45.226Z,320
2017-02-10T10:32:54.614Z,324
2017-02-10T10:34:03.589Z,356
2017-02-10T10:35:12.608Z,396
2017-02-10T10:36:21.583Z,380
2017-02-10T10:37:30.569Z,388
2017-02-10T10:38:39.970Z,380
2017-02-10T10:39:48.963Z,352
2017-02-10T10:40:57.936Z,316
2017-02-10T10:42:06.929Z,272
2017-02-10T10:43:15.903Z,256
2017-02-10T10:44:24.872Z,252
2017-02-10T10:45:33.851Z,244
2017-02-10T10:46:43.248Z,236
2017-02-10T10:47:52.210Z,232
2017-02-10T10:49:01.196Z,232
2017-02-10T10:50:10.584Z,232
2017-02-10T10:51:19.558Z,232
2017-02-10T10:52:28.531Z,232
2017-02-10T10:53:37.514Z,232
2017-02-10T10:54:46.484Z,228
2017-02-10T10:55:55.473Z,232
2017-02-10T10:57:04.455Z,232
2017-02-10T10:58:13.428Z,232
2017-02-10T10:59:22.404Z,232
2017-02-10T11:00:31.386Z,228
2017-02-10T11:01:40.777Z,232
2017-02-10T11:02:49.768Z,232
2017-02-10T11:03:58.742Z,232
2017-02-10T11:05:08.203Z,232
2017-02-10T11:06:17.192Z,228
2017-02-10T11:07:26.182Z,232
2017-02-10T11:08:35.162Z,232
2017-02-10T11:09:44.145Z,228
2017-02-10T11:10:54.013Z,232
2017-02-10T11:12:02.981Z,232
2017-02-10T11:13:11.965Z,232
2017-02-10T11:14:21.353Z,232
2017-02-10T11:15:30.740Z,232
2017-02-10T11:16:39.718Z,232
2017-02-10T11:17:48.686Z,232
2017-02-10T11:18:57.662Z,236
2017-02-10T11:20:06.643Z,236
2017-02-10T11:21:15.628Z,240
2017-02-10T11:22:24.600Z,236
2017-02-10T11:23:33.588Z,240
2017-02-10T11:24:42.563Z,240
2017-02-10T11:25:51.541Z,240
2017-02-10T11:27:00.515Z,240
2017-02-10T11:28:09.501Z,244
2017-02-10T11:29:18.469Z,244
2017-02-10T11:30:27.441Z,244
2017-02-10T11:31:36.417Z,240
2017-02-10T11:32:45.396Z,240
2017-02-10T11:33:54.376Z,244
2017-02-10T11:35:03.848Z,240
2017-02-10T11:36:12.810Z,248
2017-02-10T11:37:21.788Z,248
2017-02-10T11:38:30.769Z,244
2017-02-10T11:39:40.154Z,248
2017-02-10T11:40:49.141Z,244
2017-02-10T11:41:58.120Z,248
2017-02-10T11:43:07.096Z,252
2017-02-10T11:44:16.094Z,252
2017-02-10T11:45:25.065Z,248
2017-02-10T11:46:34.054Z,252
2017-02-10T11:47:43.017Z,248
2017-02-10T11:48:51.994Z,252
2017-02-10T11:50:00.979Z,244
2017-02-10T11:51:09.994Z,240
2017-02-10T11:52:18.975Z,248
2017-02-10T11:53:28.369Z,248
2017-02-10T11:54:37.754Z,248
2017-02-10T11:55:46.729Z,248
2017-02-10T11:56:55.714Z,252
2017-02-10T11:58:04.700Z,248
2017-02-10T11:59:13.656Z,248
2017-02-10T12:00:22.627Z,252
2017-02-10T12:01:31.608Z,252
2017-02-10T12:02:40.577Z,252
2017-02-10T12:03:49.558Z,248
2017-02-10T12:04:58.535Z,252
2017-02-10T12:06:07.925Z,256
2017-02-10T12:07:16.887Z,256
2017-02-10T12:08:25.869Z,252
2017-02-10T12:09:35.363Z,252
2017-02-10T12:10:44.345Z,256
2017-02-10T12:11:53.324Z,260
2017-02-10T12:13:02.299Z,260
2017-02-10T12:14:11.283Z,256
2017-02-10T12:15:20.258Z,256
2017-02-10T12:16:29.236Z,256
2017-02-10T12:17:38.216Z,252
2017-02-10T12:18:47.201Z,256
2017-02-10T12:19:56.180Z,260
2017-02-10T12:21:05.164Z,264
2017-02-10T12:22:14.166Z,260
2017-02-10T12:23:23.152Z,256
2017-02-10T12:24:32.139Z,260
2017-02-10T12:25:41.124Z,260
2017-02-10T12:26:50.094Z,264
2017-02-10T12:27:59.495Z,268
2017-02-10T12:29:08.475Z,268
2017-02-10T12:30:17.451Z,264
2017-02-10T12:31:26.427Z,264
2017-02-10T12:32:35.413Z,260
2017-02-10T12:33:44.815Z,260
2017-02-10T12:34:53.787Z,260
2017-02-10T12:36:02.765Z,264
2017-02-10T12:37:11.747Z,264
2017-02-10T12:38:21.142Z,260
2017-02-10T12:39:30.125Z,260
2017-02-10T12:40:39.104Z,260
2017-02-10T12:41:48.081Z,260
2017-02-10T12:42:57.054Z,264
2017-02-10T12:44:06.037Z,260
2017-02-10T12:45:15.008Z,264
2017-02-10T12:46:24.004Z,264
2017-02-10T12:47:32.981Z,260
2017-02-10T12:48:41.950Z,264
2017-02-10T12:49:50.928Z,264
2017-02-10T12:50:59.910Z,264
2017-02-10T12:52:08.891Z,264
2017-02-10T12:53:17.873Z,268
2017-02-10T12:54:26.854Z,268
2017-02-10T12:55:35.823Z,268
2017-02-10T12:56:44.806Z,268
2017-02-10T12:57:53.791Z,268
2017-02-10T12:59:02.761Z,268
2017-02-10T13:00:11.739Z,276
2017-02-10T13:01:20.720Z,272
2017-02-10T13:02:29.695Z,272
2017-02-10T13:03:38.677Z,272
2017-02-10T13:04:47.655Z,272
2017-02-10T13:05:56.630Z,276
2017-02-10T13:07:06.022Z,280
2017-02-10T13:08:15.416Z,276
2017-02-10T13:09:24.431Z,140
2017-02-10T13:10:33.823Z,272
2017-02-10T13:11:42.807Z,276
2017-02-10T13:12:51.775Z,272
2017-02-10T13:14:00.747Z,268
2017-02-10T13:15:09.724Z,268
2017-02-10T13:16:18.710Z,276
2017-02-10T13:17:27.691Z,268
2017-02-10T13:18:36.670Z,268
2017-02-10T13:19:45.643Z,268
2017-02-10T13:20:54.623Z,264
2017-02-10T13:22:03.601Z,268
2017-02-10T13:23:12.581Z,272
2017-02-10T13:24:21.564Z,268
2017-02-10T13:25:30.544Z,268
2017-02-10T13:26:39.925Z,272
2017-02-10T13:27:48.924Z,272
2017-02-10T13:28:57.907Z,268
2017-02-10T13:30:06.912Z,272
2017-02-10T13:31:16.312Z,268
2017-02-10T13:32:25.286Z,268
2017-02-10T13:33:34.272Z,264
2017-02-10T13:34:43.662Z,244
2017-02-10T13:35:52.646Z,216
2017-02-10T13:37:01.618Z,208
2017-02-10T13:38:11.012Z,228
2017-02-10T13:39:19.990Z,208
2017-02-10T13:40:28.964Z,216
2017-02-10T13:41:37.951Z,216
2017-02-10T13:42:46.929Z,212
2017-02-10T13:43:55.908Z,200
2017-02-10T13:45:05.293Z,216
2017-02-10T13:46:14.276Z,228
2017-02-10T13:47:23.758Z,220
2017-02-10T13:48:32.754Z,216
2017-02-10T13:49:41.723Z,252
2017-02-10T13:50:50.698Z,244
2017-02-10T13:51:59.676Z,240
2017-02-10T13:53:08.652Z,236
2017-02-10T13:54:17.638Z,236
2017-02-10T13:55:26.618Z,260
2017-02-10T13:56:35.766Z,264
2017-02-10T13:57:44.738Z,252
2017-02-10T13:58:53.721Z,248
2017-02-10T14:00:02.697Z,256
2017-02-10T14:01:11.718Z,248
2017-02-10T14:02:20.700Z,244
2017-02-10T14:03:29.676Z,244
2017-02-10T14:04:38.659Z,244
2017-02-10T14:05:47.637Z,240
2017-02-10T14:06:56.629Z,244
2017-02-10T14:08:05.612Z,240
2017-02-10T14:09:14.607Z,240
2017-02-10T14:10:23.578Z,244
2017-02-10T14:11:32.560Z,240
2017-02-10T14:12:41.541Z,244
2017-02-10T14:13:50.528Z,240
2017-02-10T14:14:59.550Z,244
2017-02-10T14:16:09.021Z,244
2017-02-10T14:17:17.994Z,248
2017-02-10T14:18:26.975Z,264
2017-02-10T14:19:35.960Z,256
2017-02-10T14:20:44.940Z,244
2017-02-10T14:21:53.919Z,244
2017-02-10T14:23:02.902Z,248
2017-02-10T14:24:11.878Z,252
2017-02-10T14:25:20.878Z,260
2017-02-10T14:26:30.363Z,264
2017-02-10T14:27:39.344Z,264
2017-02-10T14:28:48.330Z,272
2017-02-10T14:29:57.311Z,268
2017-02-10T14:31:06.293Z,252
2017-02-10T14:32:15.274Z,236
2017-02-10T14:33:24.264Z,248
2017-02-10T14:34:33.252Z,256
2017-02-10T14:35:42.231Z,260
2017-02-10T14:36:51.215Z,240
2017-02-10T14:38:00.186Z,220
2017-02-10T14:39:09.163Z,216
2017-02-10T14:40:18.143Z,224
2017-02-10T14:41:27.125Z,220
2017-02-10T14:42:36.103Z,208
2017-02-10T14:43:45.084Z,200
2017-02-10T14:44:54.062Z,196
2017-02-10T14:46:03.039Z,192
2017-02-10T14:47:12.430Z,192
2017-02-10T14:48:21.408Z,188
2017-02-10T14:49:30.380Z,188
2017-02-10T14:50:39.409Z,184
2017-02-10T14:51:48.381Z,180
2017-02-10T14:52:57.770Z,180
2017-02-10T14:54:06.772Z,176
2017-02-10T14:55:15.765Z,172
2017-02-10T14:56:24.734Z,168
2017-02-10T14:57:33.717Z,168
2017-02-10T14:58:42.693Z,168
2017-02-10T14:59:51.671Z,168
2017-02-10T15:01:02.058Z,160
2017-02-10T15:02:11.046Z,156
2017-02-10T15:03:20.008Z,148
2017-02-10T15:04:29.408Z,148
2017-02-10T15:05:38.381Z,148
2017-02-10T15:06:47.365Z,140
2017-02-10T15:07:56.375Z,140
2017-02-10T15:09:05.773Z,140
2017-02-10T15:10:14.750Z,136
2017-02-10T15:11:23.732Z,136
2017-02-10T15:12:32.739Z,128
2017-02-10T15:13:41.722Z,128
2017-02-10T15:14:51.114Z,124
2017-02-10T15:16:00.101Z,124
2017-02-10T15:17:09.076Z,120
2017-02-10T15:18:18.109Z,116
2017-02-10T15:19:27.112Z,112
2017-02-10T15:20:36.096Z,108
2017-02-10T15:21:45.078Z,104
2017-02-10T15:22:54.532Z,104
2017-02-10T15:24:04.362Z,100
2017-02-10T15:25:13.339Z,100
2017-02-10T15:26:22.318Z,92
2017-02-10T15:27:32.173Z,92
2017-02-10T15:28:41.160Z,88
2017-02-10T15:29:50.145Z,84
2017-02-10T15:30:59.124Z,80
2017-02-10T15:32:08.101Z,76
2017-02-10T15:33:17.081Z,76
2017-02-10T15:34:26.085Z,72
2017-02-10T15:35:35.069Z,68
2017-02-10T15:36:44.051Z,64
2017-02-10T15:37:53.026Z,60
2017-02-10T15:39:02.506Z,56
2017-02-10T15:40:14.180Z,56
2017-02-10T15:41:23.575Z,56
2017-02-10T15:42:32.557Z,48
2017-02-10T15:43:42.038Z,48
2017-02-10T15:44:51.448Z,48
2017-02-10T15:46:00.428Z,44
2017-02-10T15:47:09.410Z,40
2017-02-10T15:48:18.390Z,40
2017-02-10T15:49:27.379Z,36
2017-02-10T15:50:36.356Z,36
2017-02-10T15:51:45.338Z,32
2017-02-10T15:52:54.324Z,32
2017-02-10T15:54:03.738Z,28
2017-02-10T15:55:12.722Z,28
2017-02-10T15:56:21.701Z,28
2017-02-10T15:57:30.678Z,24
2017-02-10T15:58:39.649Z,24
2017-02-10T15:59:48.639Z,20
2017-02-10T16:00:57.615Z,20
2017-02-10T16:02:06.595Z,20
2017-02-10T16:03:15.570Z,16
2017-02-10T16:04:24.555Z,16
2017-02-10T16:05:33.532Z,12
2017-02-10T16:06:42.544Z,16
2017-02-10T16:07:51.516Z,12
2017-02-10T16:09:00.500Z,8
2017-02-10T16:10:09.476Z,12
2017-02-10T16:11:18.455Z,8
2017-02-10T16:12:27.434Z,8
2017-02-10T16:13:36.839Z,8
2017-02-10T16:14:45.831Z,8
2017-02-10T16:15:54.837Z,4
2017-02-10T16:17:03.828Z,8
2017-02-10T16:18:12.806Z,4
2017-02-10T16:19:21.835Z,4
2017-02-10T16:20:30.813Z,4
2017-02-10T16:21:39.797Z,4
2017-02-10T16:22:48.771Z,4